Time,TemperatureF,DewpointF,PressureIn,WindDirection,WindDirectionDegrees,WindSpeedMPH,WindSpeedGustMPH,Humidity,HourlyPrecipIn,Conditions,Clouds,dailyrainin,SoftwareType,DateUTC
2013-09-24 00:01:00,51.1,46.7,29.87,SSE,160,0.2,2.5,85,0.00,,,0.00,WUHU21623XXSP,2013-09-24 05:01:00,
2013-09-24 00:06:00,50.9,46.5,29.87,SSE,168,0.2,2.5,85,0.00,,,0.00,WUHU21623XXSP,2013-09-24 05:06:00,
2013-09-24 00:11:00,51.3,46.9,29.87,SSE,157,0.0,1.3,85,0.00,,,0.00,WUHU21623XXSP,2013-09-24 05:11:00,
2013-09-24 00:16:00,51.4,47.0,29.87,SSW,194,0.1,0.2,85,0.00,,,0.00,WUHU21623XXSP,2013-09-24 05:16:00,
2013-09-24 00:21:00,51.4,47.0,29.87,South,170,0.1,1.8,85,0.00,,,0.00,WUHU21623XXSP,2013-09-24 05:21:00,
2013-09-24 00:26:00,51.4,47.0,29.87,South,180,0.0,3.4,85,0.00,,,0.00,WUHU21623XXSP,2013-09-24 05:26:00,
2013-09-24 00:31:00,51.6,47.2,29.87,SSE,155,0.4,3.4,85,0.00,,,0.00,WUHU21623XXSP,2013-09-24 05:31:00,
2013-09-24 00:36:00,51.8,47.4,29.87,SE,135,1.1,2.5,85,0.00,,,0.00,WUHU21623XXSP,2013-09-24 05:36:00,
2013-09-24 00:41:00,52.2,47.5,29.87,SSE,159,0.5,1.8,84,0.00,,,0.00,WUHU21623XXSP,2013-09-24 05:41:00,
2013-09-24 00:46:00,52.5,47.5,29.87,SSE,156,0.5,1.8,83,0.00,,,0.00,WUHU21623XXSP,2013-09-24 05:46:00,
2013-09-24 00:51:00,52.9,47.9,29.87,SSE,153,0.6,3.4,83,0.00,,,0.00,WUHU21623XXSP,2013-09-24 05:51:00,
2013-09-24 00:56:00,53.1,47.8,29.88,SSE,158,0.9,4.3,82,0.00,,,0.00,WUHU21623XXSP,2013-09-24 05:56:00,
2013-09-24 01:01:00,53.2,47.9,29.88,SE,135,2.7,4.3,82,0.00,,,0.00,WUHU21623XXSP,2013-09-24 06:01:00,
2013-09-24 01:08:00,53.2,47.9,29.88,SSE,153,0.9,2.7,82,0.00,,,0.00,WUHU21623XXSP,2013-09-24 06:08:00,
2013-09-24 01:13:00,53.2,47.9,29.87,SSE,157,2.0,3.6,82,0.00,,,0.00,WUHU21623XXSP,2013-09-24 06:13:00,
2013-09-24 01:18:00,53.1,47.7,29.88,South,180,1.1,3.6,82,0.00,,,0.00,WUHU21623XXSP,2013-09-24 06:18:00,
2013-09-24 01:23:00,53.4,48.1,29.87,South,180,0.0,6.9,82,0.00,,,0.00,WUHU21623XXSP,2013-09-24 06:23:00,
2013-09-24 01:28:00,53.2,47.9,29.87,South,180,2.9,6.9,82,0.00,,,0.00,WUHU21623XXSP,2013-09-24 06:28:00,
2013-09-24 01:33:00,53.2,47.9,29.88,South,180,1.6,6.3,82,0.00,,,0.00,WUHU21623XXSP,2013-09-24 06:33:00,
2013-09-24 01:38:00,53.4,47.8,29.88,SE,135,2.2,6.3,81,0.00,,,0.00,WUHU21623XXSP,2013-09-24 06:38:00,
2013-09-24 01:43:00,53.2,47.9,29.88,South,180,3.1,3.8,82,0.00,,,0.00,WUHU21623XXSP,2013-09-24 06:43:00,
2013-09-24 01:48:00,53.2,47.9,29.88,SSE,157,0.0,8.1,82,0.00,,,0.00,WUHU21623XXSP,2013-09-24 06:48:00,
2013-09-24 01:53:00,53.4,47.8,29.88,South,180,0.0,8.3,81,0.00,,,0.00,WUHU21623XXSP,2013-09-24 06:53:00,
2013-09-24 01:58:00,53.4,47.8,29.88,SSE,157,3.4,8.3,81,0.00,,,0.00,WUHU21623XXSP,2013-09-24 06:58:00,
2013-09-24 02:03:00,53.4,48.1,29.88,SSE,163,1.8,7.2,82,0.00,,,0.00,WUHU21623XXSP,2013-09-24 07:03:00,
2013-09-24 02:09:00,53.4,48.1,29.88,South,180,1.6,1.6,82,0.00,,,0.00,WUHU21623XXSP,2013-09-24 07:09:00,
2013-09-24 02:14:00,53.4,48.1,29.88,South,176,1.4,5.6,82,0.00,,,0.00,WUHU21623XXSP,2013-09-24 07:14:00,
2013-09-24 02:19:00,53.2,47.9,29.88,South,180,0.0,5.6,82,0.00,,,0.00,WUHU21623XXSP,2013-09-24 07:19:00,
2013-09-24 02:24:00,53.2,47.9,29.88,South,180,2.5,5.6,82,0.00,,,0.00,WUHU21623XXSP,2013-09-24 07:24:00,
2013-09-24 02:29:00,53.4,48.1,29.88,SSE,157,2.0,7.8,82,0.00,,,0.00,WUHU21623XXSP,2013-09-24 07:29:00,
2013-09-24 02:34:00,53.4,48.1,29.88,South,178,1.4,7.8,82,0.00,,,0.00,WUHU21623XXSP,2013-09-24 07:34:00,
2013-09-24 02:39:00,53.6,48.0,29.88,SW,225,3.6,6.7,81,0.00,,,0.00,WUHU21623XXSP,2013-09-24 07:39:00,
2013-09-24 02:44:00,53.8,48.1,29.88,South,182,2.1,7.4,81,0.00,,,0.00,WUHU21623XXSP,2013-09-24 07:44:00,
2013-09-24 02:49:00,53.8,48.1,29.88,SE,135,4.7,7.4,81,0.00,,,0.00,WUHU21623XXSP,2013-09-24 07:49:00,
2013-09-24 02:54:00,53.4,47.8,29.88,SSW,202,0.0,6.5,81,0.00,,,0.00,WUHU21623XXSP,2013-09-24 07:54:00,
2013-09-24 02:59:00,53.4,48.1,29.88,South,180,0.0,3.6,82,0.00,,,0.00,WUHU21623XXSP,2013-09-24 07:59:00,
2013-09-24 03:04:00,53.4,48.1,29.88,South,180,0.0,3.4,82,0.00,,,0.00,WUHU21623XXSP,2013-09-24 08:04:00,
2013-09-24 03:09:00,53.4,48.1,29.88,South,180,0.0,0.0,82,0.00,,,0.00,WUHU21623XXSP,2013-09-24 08:09:00,
2013-09-24 03:14:00,53.2,47.9,29.88,SSE,160,0.5,3.6,82,0.00,,,0.00,WUHU21623XXSP,2013-09-24 08:14:00,
2013-09-24 03:19:00,52.9,47.6,29.88,South,180,0.0,3.6,82,0.00,,,0.00,WUHU21623XXSP,2013-09-24 08:19:00,
2013-09-24 03:24:00,53.2,47.9,29.88,SSE,157,1.3,5.4,82,0.00,,,0.00,WUHU21623XXSP,2013-09-24 08:24:00,
2013-09-24 03:29:00,53.1,47.7,29.88,South,180,0.0,5.4,82,0.00,,,0.00,WUHU21623XXSP,2013-09-24 08:29:00,
2013-09-24 03:34:00,52.9,47.6,29.88,South,177,0.8,4.7,82,0.00,,,0.00,WUHU21623XXSP,2013-09-24 08:34:00,
2013-09-24 03:39:00,52.7,47.7,29.88,South,180,0.0,6.5,83,0.00,,,0.00,WUHU21623XXSP,2013-09-24 08:39:00,
2013-09-24 03:44:00,52.9,47.9,29.88,South,178,1.2,7.4,83,0.00,,,0.00,WUHU21623XXSP,2013-09-24 08:44:00,
2013-09-24 03:49:00,52.9,47.6,29.88,SSW,202,0.0,7.4,82,0.00,,,0.00,WUHU21623XXSP,2013-09-24 08:49:00,
2013-09-24 03:54:00,52.7,47.7,29.88,ESE,112,0.0,6.9,83,0.00,,,0.00,WUHU21623XXSP,2013-09-24 08:54:00,
2013-09-24 03:59:00,52.5,47.5,29.88,SW,225,2.0,7.2,83,0.00,,,0.00,WUHU21623XXSP,2013-09-24 08:59:00,
2013-09-24 04:04:00,52.5,47.5,29.88,SW,225,2.0,7.2,83,0.00,,,0.00,WUHU21623XXSP,2013-09-24 09:04:00,
2013-09-24 04:14:00,52.5,47.5,29.88,SW,225,0.0,0.0,83,0.00,,,0.00,WUHU21623XXSP,2013-09-24 09:14:00,
2013-09-24 04:19:00,52.2,47.1,29.88,SSW,202,0.0,3.8,83,0.00,,,0.00,WUHU21623XXSP,2013-09-24 09:19:00,
2013-09-24 04:24:00,52.2,47.1,29.88,SSW,202,1.6,3.8,83,0.00,,,0.00,WUHU21623XXSP,2013-09-24 09:24:00,
2013-09-24 04:29:00,52.0,47.0,29.88,SSW,202,0.7,2.2,83,0.00,,,0.00,WUHU21623XXSP,2013-09-24 09:29:00,
2013-09-24 04:34:00,51.8,47.1,29.88,SSW,202,0.0,4.7,84,0.00,,,0.00,WUHU21623XXSP,2013-09-24 09:34:00,
2013-09-24 04:39:00,52.0,47.3,29.88,SSW,202,0.0,4.9,84,0.00,,,0.00,WUHU21623XXSP,2013-09-24 09:39:00,
2013-09-24 04:44:00,52.0,47.3,29.88,SSW,202,0.0,5.1,84,0.00,,,0.00,WUHU21623XXSP,2013-09-24 09:44:00,
2013-09-24 04:49:00,51.6,46.9,29.88,SW,225,0.0,5.1,84,0.00,,,0.00,WUHU21623XXSP,2013-09-24 09:49:00,
2013-09-24 04:54:00,51.6,46.9,29.88,SSE,157,0.0,2.9,84,0.00,,,0.00,WUHU21623XXSP,2013-09-24 09:54:00,
2013-09-24 04:59:00,51.6,46.9,29.88,South,179,0.3,3.1,84,0.00,,,0.00,WUHU21623XXSP,2013-09-24 09:59:00,
2013-09-24 05:04:00,51.6,46.9,29.88,South,180,0.0,3.1,84,0.00,,,0.00,WUHU21623XXSP,2013-09-24 10:04:00,
2013-09-24 05:09:00,51.6,46.9,29.88,South,180,0.0,3.8,84,0.00,,,0.00,WUHU21623XXSP,2013-09-24 10:09:00,
2013-09-24 05:14:00,51.6,46.9,29.88,SSE,157,0.0,4.3,84,0.00,,,0.00,WUHU21623XXSP,2013-09-24 10:14:00,
2013-09-24 05:19:00,51.4,47.0,29.88,SSE,157,0.0,4.3,85,0.00,,,0.00,WUHU21623XXSP,2013-09-24 10:19:00,
2013-09-24 05:24:00,51.4,47.0,29.88,South,180,0.0,3.1,85,0.00,,,0.00,WUHU21623XXSP,2013-09-24 10:24:00,
2013-09-24 05:29:00,51.3,46.9,29.88,South,180,0.0,3.1,85,0.00,,,0.00,WUHU21623XXSP,2013-09-24 10:29:00,
2013-09-24 05:34:00,50.9,46.5,29.88,South,182,0.2,3.8,85,0.00,,,0.00,WUHU21623XXSP,2013-09-24 10:34:00,
2013-09-24 05:39:00,51.1,46.7,29.88,SW,225,0.9,3.8,85,0.00,,,0.00,WUHU21623XXSP,2013-09-24 10:39:00,
2013-09-24 05:44:00,51.1,46.7,29.88,South,180,0.0,0.9,85,0.00,,,0.00,WUHU21623XXSP,2013-09-24 10:44:00,
2013-09-24 05:49:00,50.9,46.5,29.88,South,180,0.0,1.3,85,0.00,,,0.00,WUHU21623XXSP,2013-09-24 10:49:00,
2013-09-24 05:54:00,50.7,46.3,29.88,South,173,0.3,1.3,85,0.00,,,0.00,WUHU21623XXSP,2013-09-24 10:54:00,
2013-09-24 05:59:00,50.7,46.3,29.88,SSE,166,0.4,3.1,85,0.00,,,0.00,WUHU21623XXSP,2013-09-24 10:59:00,
2013-09-24 06:04:00,50.7,46.3,29.89,SE,135,0.0,3.1,85,0.00,,,0.00,WUHU21623XXSP,2013-09-24 11:04:00,
2013-09-24 06:09:00,50.7,46.3,29.89,SSE,162,0.4,1.3,85,0.00,,,0.00,WUHU21623XXSP,2013-09-24 11:09:00,
2013-09-24 06:14:00,50.5,46.2,29.88,SSE,160,0.4,1.3,85,0.00,,,0.00,WUHU21623XXSP,2013-09-24 11:14:00,
2013-09-24 06:19:00,50.5,46.5,29.88,SSE,161,0.4,0.7,86,0.00,,,0.00,WUHU21623XXSP,2013-09-24 11:19:00,
2013-09-24 06:24:00,50.4,46.0,29.89,South,180,0.0,7.6,85,0.00,,,0.00,WUHU21623XXSP,2013-09-24 11:24:00,
2013-09-24 06:29:00,50.2,46.1,29.88,South,180,0.0,7.6,86,0.00,,,0.00,WUHU21623XXSP,2013-09-24 11:29:00,
2013-09-24 06:34:00,50.4,46.3,29.88,SSE,157,0.0,1.3,86,0.00,,,0.00,WUHU21623XXSP,2013-09-24 11:34:00,
2013-09-24 06:39:00,50.4,46.3,29.89,South,180,3.4,3.4,86,0.00,,,0.00,WUHU21623XXSP,2013-09-24 11:39:00,
2013-09-24 06:44:00,50.2,46.1,29.89,SSE,157,0.0,3.4,86,0.00,,,0.00,WUHU21623XXSP,2013-09-24 11:44:00,
2013-09-24 06:49:00,49.8,45.7,29.88,South,180,0.0,3.1,86,0.00,,,0.00,WUHU21623XXSP,2013-09-24 11:49:00,
2013-09-24 06:54:00,49.6,45.6,29.89,South,180,0.0,2.2,86,0.00,,,0.00,WUHU21623XXSP,2013-09-24 11:54:00,
2013-09-24 06:59:00,49.3,45.5,29.88,South,180,0.0,0.1,87,0.00,,,0.00,WUHU21623XXSP,2013-09-24 11:59:00,
2013-09-24 07:04:00,49.1,45.4,29.89,SSE,157,0.0,0.0,87,0.00,,,0.00,WUHU21623XXSP,2013-09-24 12:04:00,
2013-09-24 07:09:00,49.1,45.4,29.88,SE,135,0.0,0.0,87,0.00,,,0.00,WUHU21623XXSP,2013-09-24 12:09:00,
2013-09-24 07:14:00,48.9,45.2,29.89,SE,135,0.0,0.0,87,0.00,,,0.00,WUHU21623XXSP,2013-09-24 12:14:00,
2013-09-24 07:19:00,48.9,45.2,29.89,SE,135,0.0,1.6,87,0.00,,,0.00,WUHU21623XXSP,2013-09-24 12:19:00,
2013-09-24 07:24:00,48.9,45.2,29.89,SSE,157,0.0,3.6,87,0.00,,,0.00,WUHU21623XXSP,2013-09-24 12:24:00,
2013-09-24 07:29:00,49.1,45.4,29.89,SE,135,0.0,3.6,87,0.00,,,0.00,WUHU21623XXSP,2013-09-24 12:29:00,
2013-09-24 07:34:00,49.3,45.5,29.89,South,180,0.0,3.6,87,0.00,,,0.00,WUHU21623XXSP,2013-09-24 12:34:00,
2013-09-24 07:39:00,49.3,45.5,29.89,SSE,157,0.0,3.6,87,0.00,,,0.00,WUHU21623XXSP,2013-09-24 12:39:00,
2013-09-24 07:44:00,49.3,45.5,29.89,South,180,0.0,4.9,87,0.00,,,0.00,WUHU21623XXSP,2013-09-24 12:44:00,
2013-09-24 07:49:00,49.6,45.9,29.88,SSE,157,0.0,4.9,87,0.00,,,0.00,WUHU21623XXSP,2013-09-24 12:49:00,
2013-09-24 07:54:00,49.8,46.0,29.88,SSE,157,0.0,3.4,87,0.00,,,0.00,WUHU21623XXSP,2013-09-24 12:54:00,
2013-09-24 07:59:00,50.0,46.2,29.88,SE,135,0.0,3.4,87,0.00,,,0.00,WUHU21623XXSP,2013-09-24 12:59:00,
2013-09-24 08:04:00,50.4,46.3,29.89,SE,135,0.0,3.4,86,0.00,,,0.00,WUHU21623XXSP,2013-09-24 13:04:00,
2013-09-24 08:09:00,50.7,46.6,29.88,South,180,2.0,5.1,86,0.00,,,0.00,WUHU21623XXSP,2013-09-24 13:09:00,
2013-09-24 08:14:00,51.3,47.2,29.89,SE,135,0.0,6.0,86,0.00,,,0.00,WUHU21623XXSP,2013-09-24 13:14:00,
2013-09-24 08:19:00,51.4,47.0,29.89,SSE,157,2.5,6.0,85,0.00,,,0.00,WUHU21623XXSP,2013-09-24 13:19:00,
2013-09-24 08:24:00,51.6,47.2,29.89,SE,135,0.0,2.5,85,0.00,,,0.00,WUHU21623XXSP,2013-09-24 13:24:00,
2013-09-24 08:29:00,51.6,47.2,29.89,SE,135,0.0,2.5,85,0.00,,,0.00,WUHU21623XXSP,2013-09-24 13:29:00,
2013-09-24 08:34:00,52.0,47.3,29.89,SSE,157,0.0,3.6,84,0.00,,,0.00,WUHU21623XXSP,2013-09-24 13:34:00,
2013-09-24 08:39:00,52.3,47.6,29.89,South,180,0.9,4.7,84,0.00,,,0.00,WUHU21623XXSP,2013-09-24 13:39:00,
2013-09-24 08:44:00,52.5,47.5,29.89,South,180,1.6,4.7,83,0.00,,,0.00,WUHU21623XXSP,2013-09-24 13:44:00,
2013-09-24 08:49:00,53.2,47.9,29.90,SSE,157,0.0,6.3,82,0.00,,,0.00,WUHU21623XXSP,2013-09-24 13:49:00,
2013-09-24 08:54:00,53.4,48.1,29.90,SSE,157,0.2,6.3,82,0.00,,,0.00,WUHU21623XXSP,2013-09-24 13:54:00,
2013-09-24 08:59:00,53.6,48.3,29.90,SE,135,0.0,6.0,82,0.00,,,0.00,WUHU21623XXSP,2013-09-24 13:59:00,
2013-09-24 09:04:00,53.8,48.4,29.90,ESE,112,0.0,6.0,82,0.00,,,0.00,WUHU21623XXSP,2013-09-24 14:04:00,
2013-09-24 09:09:00,54.1,48.5,29.90,South,180,2.0,6.7,81,0.00,,,0.00,WUHU21623XXSP,2013-09-24 14:09:00,
2013-09-24 09:14:00,54.7,48.9,29.90,SE,135,2.2,6.7,81,0.00,,,0.00,WUHU21623XXSP,2013-09-24 14:14:00,
2013-09-24 09:19:00,55.0,49.0,29.90,SSW,202,0.0,5.8,80,0.00,,,0.00,WUHU21623XXSP,2013-09-24 14:19:00,
2013-09-24 09:24:00,55.8,49.3,29.91,NW,315,0.0,4.0,79,0.00,,,0.00,WUHU21623XXSP,2013-09-24 14:24:00,
2013-09-24 09:29:00,55.9,49.5,29.91,SSE,157,0.4,4.9,79,0.00,,,0.00,WUHU21623XXSP,2013-09-24 14:29:00,
2013-09-24 09:34:00,56.3,49.5,29.91,SSE,157,0.0,4.9,78,0.00,,,0.00,WUHU21623XXSP,2013-09-24 14:34:00,
2013-09-24 09:39:00,56.5,49.8,29.91,SSE,149,0.6,2.2,78,0.00,,,0.00,WUHU21623XXSP,2013-09-24 14:39:00,
2013-09-24 09:44:00,57.0,50.2,29.91,SSW,202,1.3,1.8,78,0.00,,,0.00,WUHU21623XXSP,2013-09-24 14:44:00,
2013-09-24 09:49:00,57.6,50.4,29.91,SE,135,1.6,6.7,77,0.00,,,0.00,WUHU21623XXSP,2013-09-24 14:49:00,
2013-09-24 09:54:00,58.1,50.2,29.91,SE,135,1.1,7.4,75,0.00,,,0.00,WUHU21623XXSP,2013-09-24 14:54:00,
2013-09-24 09:59:00,58.6,50.7,29.91,SSE,157,0.0,7.4,75,0.00,,,0.00,WUHU21623XXSP,2013-09-24 14:59:00,
2013-09-24 10:04:00,59.5,51.3,29.91,South,180,1.1,7.2,74,0.00,,,0.00,WUHU21623XXSP,2013-09-24 15:04:00,
2013-09-24 10:09:00,59.7,51.1,29.91,East,90,0.7,7.2,73,0.00,,,0.00,WUHU21623XXSP,2013-09-24 15:09:00,
2013-09-24 10:14:00,60.1,51.4,29.91,SSE,157,1.3,4.5,73,0.00,,,0.00,WUHU21623XXSP,2013-09-24 15:14:00,
2013-09-24 10:19:00,61.0,51.6,29.91,WSW,247,1.1,5.1,71,0.00,,,0.00,WUHU21623XXSP,2013-09-24 15:19:00,
2013-09-24 10:24:00,62.1,52.6,29.91,SE,135,7.8,7.8,71,0.00,,,0.00,WUHU21623XXSP,2013-09-24 15:24:00,
2013-09-24 10:29:00,62.4,52.5,29.91,SSW,202,1.3,7.8,70,0.00,,,0.00,WUHU21623XXSP,2013-09-24 15:29:00,
2013-09-24 10:34:00,62.4,52.1,29.91,SSE,157,2.7,6.7,69,0.00,,,0.00,WUHU21623XXSP,2013-09-24 15:34:00,
2013-09-24 10:39:00,62.4,52.1,29.91,SSW,202,5.8,7.2,69,0.00,,,0.00,WUHU21623XXSP,2013-09-24 15:39:00,
2013-09-24 10:44:00,64.0,52.8,29.91,WSW,247,4.7,7.2,67,0.00,,,0.00,WUHU21623XXSP,2013-09-24 15:44:00,
2013-09-24 10:49:00,63.5,52.8,29.91,SSW,202,2.0,7.2,68,0.00,,,0.00,WUHU21623XXSP,2013-09-24 15:49:00,
2013-09-24 10:54:00,64.0,52.4,29.91,East,90,2.2,4.0,66,0.00,,,0.00,WUHU21623XXSP,2013-09-24 15:54:00,
2013-09-24 10:59:00,64.6,53.8,29.91,ESE,112,1.3,3.1,68,0.00,,,0.00,WUHU21623XXSP,2013-09-24 15:59:00,
2013-09-24 11:04:00,64.4,53.2,29.91,South,180,0.0,5.4,67,0.00,,,0.00,WUHU21623XXSP,2013-09-24 16:04:00,
2013-09-24 11:09:00,65.3,52.8,29.91,SE,135,0.2,6.5,64,0.00,,,0.00,WUHU21623XXSP,2013-09-24 16:09:00,
2013-09-24 11:14:00,65.1,53.4,29.90,SE,135,3.1,8.5,66,0.00,,,0.00,WUHU21623XXSP,2013-09-24 16:14:00,
2013-09-24 11:19:00,65.1,53.4,29.90,SSW,202,2.2,8.5,66,0.00,,,0.00,WUHU21623XXSP,2013-09-24 16:19:00,
2013-09-24 11:24:00,65.7,53.9,29.90,SSW,202,0.7,7.8,66,0.00,,,0.00,WUHU21623XXSP,2013-09-24 16:24:00,
2013-09-24 11:29:00,65.8,52.9,29.90,South,180,2.9,6.3,63,0.00,,,0.00,WUHU21623XXSP,2013-09-24 16:29:00,
2013-09-24 11:34:00,64.9,52.4,29.90,SW,225,0.9,8.3,64,0.00,,,0.00,WUHU21623XXSP,2013-09-24 16:34:00,
2013-09-24 11:39:00,66.0,54.3,29.90,SSE,157,0.0,8.3,66,0.00,,,0.00,WUHU21623XXSP,2013-09-24 16:39:00,
2013-09-24 11:44:00,66.7,54.1,29.90,SW,225,2.5,5.1,64,0.00,,,0.00,WUHU21623XXSP,2013-09-24 16:44:00,
2013-09-24 11:49:00,67.3,54.2,29.90,SSE,157,1.1,6.0,63,0.00,,,0.00,WUHU21623XXSP,2013-09-24 16:49:00,
2013-09-24 11:54:00,66.7,53.3,29.90,ENE,67,1.8,7.2,62,0.00,,,0.00,WUHU21623XXSP,2013-09-24 16:54:00,
2013-09-24 11:59:00,67.3,53.8,29.90,WSW,247,0.9,7.2,62,0.00,,,0.00,WUHU21623XXSP,2013-09-24 16:59:00,
2013-09-24 12:04:00,67.6,53.7,29.90,SSE,157,2.5,7.8,61,0.00,,,0.00,WUHU21623XXSP,2013-09-24 17:04:00,
2013-09-24 12:09:00,67.3,53.8,29.90,South,180,0.0,7.8,62,0.00,,,0.00,WUHU21623XXSP,2013-09-24 17:09:00,
2013-09-24 12:14:00,67.6,54.6,29.90,SSE,157,2.9,6.3,63,0.00,,,0.00,WUHU21623XXSP,2013-09-24 17:14:00,
2013-09-24 12:19:00,68.2,53.8,29.90,SSW,202,1.3,6.3,60,0.00,,,0.00,WUHU21623XXSP,2013-09-24 17:19:00,
2013-09-24 12:24:00,68.2,53.8,29.90,SSE,157,1.6,6.5,60,0.00,,,0.00,WUHU21623XXSP,2013-09-24 17:24:00,
2013-09-24 12:29:00,67.5,53.1,29.90,WSW,247,0.0,6.5,60,0.00,,,0.00,WUHU21623XXSP,2013-09-24 17:29:00,
2013-09-24 12:34:00,68.4,54.4,29.89,WSW,247,0.0,5.6,61,0.00,,,0.00,WUHU21623XXSP,2013-09-24 17:34:00,
2013-09-24 12:39:00,70.0,55.6,29.89,SSW,202,0.0,3.8,60,0.00,,,0.00,WUHU21623XXSP,2013-09-24 17:39:00,
2013-09-24 12:44:00,69.8,53.4,29.89,South,180,0.9,4.5,56,0.00,,,0.00,WUHU21623XXSP,2013-09-24 17:44:00,
2013-09-24 12:49:00,69.4,54.5,29.89,SE,135,2.7,4.5,59,0.00,,,0.00,WUHU21623XXSP,2013-09-24 17:49:00,
2013-09-24 12:54:00,70.0,55.1,29.89,South,180,1.1,4.5,59,0.00,,,0.00,WUHU21623XXSP,2013-09-24 17:54:00,
2013-09-24 12:59:00,70.3,54.4,29.89,SSE,157,0.0,6.3,57,0.00,,,0.00,WUHU21623XXSP,2013-09-24 17:59:00,
2013-09-24 13:04:00,70.7,54.2,29.89,WNW,292,0.0,8.3,56,0.00,,,0.00,WUHU21623XXSP,2013-09-24 18:04:00,
2013-09-24 13:09:00,70.5,53.5,29.88,ENE,67,4.5,8.3,55,0.00,,,0.00,WUHU21623XXSP,2013-09-24 18:09:00,
2013-09-24 13:14:00,70.0,53.0,29.88,SSE,157,5.6,7.8,55,0.00,,,0.00,WUHU21623XXSP,2013-09-24 18:14:00,
2013-09-24 13:19:00,70.3,53.7,29.88,WSW,247,0.0,6.9,57,0.00,,,0.00,WUHU21623XXSP,2013-09-24 18:19:00,
2013-09-24 13:24:00,70.3,53.4,29.88,SW,225,3.1,6.9,55,0.00,,,0.00,WUHU21623XXSP,2013-09-24 18:24:00,
2013-09-24 13:29:00,70.3,53.4,29.88,ESE,112,1.8,6.5,55,0.00,,,0.00,WUHU21623XXSP,2013-09-24 18:29:00,
2013-09-24 13:34:00,70.3,53.9,29.88,SE,135,1.6,6.7,56,0.00,,,0.00,WUHU21623XXSP,2013-09-24 18:34:00,
2013-09-24 13:39:00,70.2,54.2,29.88,SSW,202,2.9,6.7,57,0.00,,,0.00,WUHU21623XXSP,2013-09-24 18:39:00,
2013-09-24 13:44:00,70.7,54.2,29.88,SE,135,2.2,6.5,56,0.00,,,0.00,WUHU21623XXSP,2013-09-24 18:44:00,
2013-09-24 13:49:00,70.5,53.5,29.88,SW,225,0.9,5.4,55,0.00,,,0.00,WUHU21623XXSP,2013-09-24 18:49:00,
2013-09-24 13:54:00,71.4,54.8,29.88,SE,135,1.3,7.2,56,0.00,,,0.00,WUHU21623XXSP,2013-09-24 18:54:00,
2013-09-24 13:59:00,70.9,54.4,29.87,SSE,157,2.0,8.5,56,0.00,,,0.00,WUHU21623XXSP,2013-09-24 18:59:00,
2013-09-24 14:04:00,71.2,53.7,29.87,SE,135,3.6,8.5,54,0.00,,,0.00,WUHU21623XXSP,2013-09-24 19:04:00,
2013-09-24 14:09:00,71.2,54.2,29.88,South,180,1.3,4.9,55,0.00,,,0.00,WUHU21623XXSP,2013-09-24 19:09:00,
2013-09-24 14:14:00,71.2,54.7,29.87,SE,135,2.9,6.5,56,0.00,,,0.00,WUHU21623XXSP,2013-09-24 19:14:00,
2013-09-24 14:19:00,70.7,52.7,29.87,SSW,202,4.5,8.7,53,0.00,,,0.00,WUHU21623XXSP,2013-09-24 19:19:00,
2013-09-24 14:24:00,70.9,53.3,29.87,SW,225,0.0,8.7,54,0.00,,,0.00,WUHU21623XXSP,2013-09-24 19:24:00,
2013-09-24 14:29:00,70.9,52.8,29.86,SW,225,5.1,7.8,53,0.00,,,0.00,WUHU21623XXSP,2013-09-24 19:29:00,
2013-09-24 14:34:00,70.7,53.7,29.86,SSW,202,0.7,7.8,55,0.00,,,0.00,WUHU21623XXSP,2013-09-24 19:34:00,
2013-09-24 14:39:00,70.9,52.8,29.86,SW,225,6.7,7.8,53,0.00,,,0.00,WUHU21623XXSP,2013-09-24 19:39:00,
2013-09-24 14:44:00,71.8,53.7,29.86,SSW,202,0.0,7.8,53,0.00,,,0.00,WUHU21623XXSP,2013-09-24 19:44:00,
2013-09-24 14:49:00,72.0,53.8,29.86,SW,225,4.5,7.2,53,0.00,,,0.00,WUHU21623XXSP,2013-09-24 19:49:00,
2013-09-24 14:54:00,72.1,54.0,29.86,SSW,202,3.1,6.0,53,0.00,,,0.00,WUHU21623XXSP,2013-09-24 19:54:00,
2013-09-24 14:59:00,72.3,53.6,29.86,SSW,202,2.7,7.4,52,0.00,,,0.00,WUHU21623XXSP,2013-09-24 19:59:00,
2013-09-24 15:04:00,71.8,53.7,29.86,SW,225,0.0,9.2,53,0.00,,,0.00,WUHU21623XXSP,2013-09-24 20:04:00,
2013-09-24 15:09:00,72.0,53.8,29.86,SSE,157,0.0,9.2,53,0.00,,,0.00,WUHU21623XXSP,2013-09-24 20:09:00,
2013-09-24 15:14:00,70.7,53.7,29.86,SSW,202,1.8,2.7,55,0.00,,,0.00,WUHU21623XXSP,2013-09-24 20:14:00,
2013-09-24 15:19:00,70.9,52.8,29.86,SSW,202,2.7,3.8,53,0.00,,,0.00,WUHU21623XXSP,2013-09-24 20:19:00,
2013-09-24 15:24:00,71.4,54.5,29.86,SSW,200,1.5,4.5,55,0.00,,,0.00,WUHU21623XXSP,2013-09-24 20:24:00,
2013-09-24 15:29:00,71.6,53.5,29.86,WSW,247,1.8,7.8,53,0.00,,,0.00,WUHU21623XXSP,2013-09-24 20:29:00,
2013-09-24 15:34:00,71.2,53.2,29.86,SSE,157,3.8,7.8,53,0.00,,,0.00,WUHU21623XXSP,2013-09-24 20:34:00,
2013-09-24 15:39:00,71.2,52.7,29.86,WSW,247,3.6,6.3,52,0.00,,,0.00,WUHU21623XXSP,2013-09-24 20:39:00,
2013-09-24 15:44:00,71.4,53.8,29.86,SW,225,6.9,6.9,54,0.00,,,0.00,WUHU21623XXSP,2013-09-24 20:44:00,
2013-09-24 15:49:00,71.4,52.3,29.86,WSW,247,2.5,6.9,51,0.00,,,0.00,WUHU21623XXSP,2013-09-24 20:49:00,
2013-09-24 15:54:00,71.2,52.7,29.86,WSW,247,2.7,6.5,52,0.00,,,0.00,WUHU21623XXSP,2013-09-24 20:54:00,
2013-09-24 15:59:00,71.2,52.2,29.86,WSW,247,0.9,6.3,51,0.00,,,0.00,WUHU21623XXSP,2013-09-24 20:59:00,
2013-09-24 16:04:00,71.2,52.7,29.86,WSW,247,2.5,6.3,52,0.00,,,0.00,WUHU21623XXSP,2013-09-24 21:04:00,
2013-09-24 16:09:00,72.0,52.8,29.86,WSW,247,0.0,5.4,51,0.00,,,0.00,WUHU21623XXSP,2013-09-24 21:09:00,
2013-09-24 16:14:00,72.1,53.0,29.85,WSW,247,0.4,5.8,51,0.00,,,0.00,WUHU21623XXSP,2013-09-24 21:14:00,
2013-09-24 16:19:00,71.8,53.2,29.85,WSW,247,0.7,5.8,52,0.00,,,0.00,WUHU21623XXSP,2013-09-24 21:19:00,
2013-09-24 16:24:00,71.6,53.5,29.85,WSW,247,2.2,8.7,53,0.00,,,0.00,WUHU21623XXSP,2013-09-24 21:24:00,
2013-09-24 16:29:00,71.4,52.8,29.85,WSW,247,0.4,8.7,52,0.00,,,0.00,WUHU21623XXSP,2013-09-24 21:29:00,
2013-09-24 16:34:00,71.2,51.1,29.85,WSW,247,7.2,7.2,49,0.00,,,0.00,WUHU21623XXSP,2013-09-24 21:34:00,
2013-09-24 16:39:00,70.7,51.2,29.85,WSW,247,0.0,7.2,50,0.00,,,0.00,WUHU21623XXSP,2013-09-24 21:39:00,
2013-09-24 16:44:00,70.7,51.2,29.86,WSW,247,0.7,6.0,50,0.00,,,0.00,WUHU21623XXSP,2013-09-24 21:44:00,
2013-09-24 16:49:00,70.7,52.7,29.86,SW,225,0.0,8.7,53,0.00,,,0.00,WUHU21623XXSP,2013-09-24 21:49:00,
2013-09-24 16:54:00,69.4,51.0,29.86,SW,225,0.7,8.7,52,0.00,,,0.00,WUHU21623XXSP,2013-09-24 21:54:00,
2013-09-24 16:59:00,68.5,51.2,29.86,SW,225,0.0,7.8,54,0.00,,,0.00,WUHU21623XXSP,2013-09-24 21:59:00,
2013-09-24 17:04:00,68.2,51.3,29.86,SW,225,0.0,2.0,55,0.00,,,0.00,WUHU21623XXSP,2013-09-24 22:04:00,
2013-09-24 17:09:00,67.5,52.1,29.86,South,180,0.0,2.5,58,0.00,,,0.00,WUHU21623XXSP,2013-09-24 22:09:00,
2013-09-24 17:14:00,67.6,52.3,29.86,WSW,247,0.0,4.3,58,0.00,,,0.00,WUHU21623XXSP,2013-09-24 22:14:00,
2013-09-24 17:19:00,67.8,52.0,29.86,South,180,3.1,4.3,57,0.00,,,0.00,WUHU21623XXSP,2013-09-24 22:19:00,
2013-09-24 17:24:00,67.8,52.5,29.86,SE,135,0.0,4.7,58,0.00,,,0.00,WUHU21623XXSP,2013-09-24 22:24:00,
2013-09-24 17:29:00,67.8,52.5,29.86,SSW,202,0.0,4.7,57,0.00,,,0.00,WUHU21623XXSP,2013-09-24 22:29:00,
2013-09-24 17:34:00,66.9,52.1,29.86,SSW,202,0.0,4.0,59,0.00,,,0.00,WUHU21623XXSP,2013-09-24 22:34:00,
2013-09-24 17:39:00,66.4,52.6,29.86,SSW,202,0.2,2.0,61,0.00,,,0.00,WUHU21623XXSP,2013-09-24 22:39:00,
2013-09-24 17:44:00,65.8,52.0,29.86,SSW,202,0.0,1.3,61,0.00,,,0.00,WUHU21623XXSP,2013-09-24 22:44:00,
2013-09-24 17:49:00,65.1,52.6,29.86,SSW,202,0.0,1.3,64,0.00,,,0.00,WUHU21623XXSP,2013-09-24 22:49:00,
2013-09-24 17:54:00,64.2,52.6,29.86,SSW,202,0.0,0.0,66,0.00,,,0.00,WUHU21623XXSP,2013-09-24 22:54:00,
2013-09-24 17:59:00,63.7,52.5,29.86,SSW,202,0.0,0.0,67,0.00,,,0.00,WUHU21623XXSP,2013-09-24 22:59:00,
2013-09-24 18:04:00,63.1,52.8,29.86,SSW,202,0.0,0.0,69,0.00,,,0.00,WUHU21623XXSP,2013-09-24 23:04:00,
2013-09-24 18:09:00,62.8,52.0,29.86,SSW,202,0.0,0.0,68,0.00,,,0.00,WUHU21623XXSP,2013-09-24 23:09:00,
2013-09-24 18:14:00,62.4,52.1,29.87,SSW,202,0.0,0.0,69,0.00,,,0.00,WUHU21623XXSP,2013-09-24 23:14:00,
2013-09-24 18:19:00,61.9,52.4,29.86,SSW,202,0.0,0.0,71,0.00,,,0.00,WUHU21623XXSP,2013-09-24 23:19:00,
2013-09-24 18:24:00,62.1,52.2,29.86,SSW,202,0.0,0.0,70,0.00,,,0.00,WUHU21623XXSP,2013-09-24 23:24:00,
2013-09-24 18:29:00,61.9,52.1,29.86,SSW,202,0.0,0.0,70,0.00,,,0.00,WUHU21623XXSP,2013-09-24 23:29:00,
2013-09-24 18:34:00,61.9,51.6,29.86,SSW,202,0.0,0.0,69,0.00,,,0.00,WUHU21623XXSP,2013-09-24 23:34:00,
2013-09-24 18:39:00,62.4,51.7,29.87,SSE,157,0.0,3.1,68,0.00,,,0.00,WUHU21623XXSP,2013-09-24 23:39:00,
2013-09-24 18:44:00,62.4,51.7,29.87,SSE,157,0.0,3.1,68,0.00,,,0.00,WUHU21623XXSP,2013-09-24 23:44:00,
2013-09-24 18:49:00,61.7,51.9,29.87,SSE,157,0.0,0.0,70,0.00,,,0.00,WUHU21623XXSP,2013-09-24 23:49:00,
2013-09-24 18:54:00,61.0,52.0,29.87,SSE,157,0.0,0.0,72,0.00,,,0.00,WUHU21623XXSP,2013-09-24 23:54:00,
2013-09-24 18:59:00,60.4,51.8,29.87,SSE,157,0.0,0.0,73,0.00,,,0.00,WUHU21623XXSP,2013-09-24 23:59:00,
2013-09-24 19:04:00,59.9,51.6,29.87,SSE,157,0.0,0.0,74,0.00,,,0.00,WUHU21623XXSP,2013-09-25 00:04:00,
2013-09-24 19:09:00,59.5,51.6,29.87,SSE,157,0.0,0.0,75,0.00,,,0.00,WUHU21623XXSP,2013-09-25 00:09:00,
2013-09-24 19:14:00,58.8,51.6,29.87,SSE,157,0.0,0.0,77,0.00,,,0.00,WUHU21623XXSP,2013-09-25 00:14:00,
2013-09-24 19:19:00,58.5,51.3,29.88,SSE,157,0.0,0.0,77,0.00,,,0.00,WUHU21623XXSP,2013-09-25 00:19:00,
2013-09-24 19:24:00,58.8,51.4,29.87,SSE,157,1.1,1.1,77,0.00,,,0.00,WUHU21623XXSP,2013-09-25 00:24:00,
2013-09-24 19:29:00,58.6,51.4,29.87,SSE,157,0.0,1.1,77,0.00,,,0.00,WUHU21623XXSP,2013-09-25 00:29:00,
2013-09-24 19:34:00,58.1,51.0,29.87,SSE,157,0.1,0.7,77,0.00,,,0.00,WUHU21623XXSP,2013-09-25 00:34:00,
2013-09-24 19:39:00,57.9,50.7,29.88,SSE,157,0.0,0.1,77,0.00,,,0.00,WUHU21623XXSP,2013-09-25 00:39:00,
2013-09-24 19:44:00,57.9,51.1,29.88,SSE,157,0.0,0.0,78,0.00,,,0.00,WUHU21623XXSP,2013-09-25 00:44:00,
2013-09-24 19:49:00,57.7,51.3,29.88,SSE,157,0.0,0.0,79,0.00,,,0.00,WUHU21623XXSP,2013-09-25 00:49:00,
2013-09-24 19:54:00,57.4,51.3,29.88,SSE,157,0.0,0.0,80,0.00,,,0.00,WUHU21623XXSP,2013-09-25 00:54:00,
2013-09-24 19:59:00,57.4,50.9,29.88,SE,135,0.0,1.1,79,0.00,,,0.00,WUHU21623XXSP,2013-09-25 00:59:00,
2013-09-24 20:04:00,57.0,50.2,29.88,SE,135,0.0,1.3,78,0.00,,,0.00,WUHU21623XXSP,2013-09-25 01:04:00,
2013-09-24 20:09:00,56.8,50.4,29.87,SE,135,0.0,2.0,79,0.00,,,0.00,WUHU21623XXSP,2013-09-25 01:09:00,
2013-09-24 20:14:00,56.7,50.2,29.88,SE,135,0.0,2.0,79,0.00,,,0.00,WUHU21623XXSP,2013-09-25 01:14:00,
2013-09-24 20:19:00,56.8,50.4,29.88,SE,135,0.0,1.3,79,0.00,,,0.00,WUHU21623XXSP,2013-09-25 01:19:00,
2013-09-24 20:24:00,56.5,50.4,29.88,SSE,157,0.0,0.2,80,0.00,,,0.00,WUHU21623XXSP,2013-09-25 01:24:00,
2013-09-24 20:29:00,56.5,50.4,29.88,SE,135,0.0,0.1,80,0.00,,,0.00,WUHU21623XXSP,2013-09-25 01:29:00,
2013-09-24 20:34:00,56.5,50.4,29.88,SE,135,0.0,0.0,80,0.00,,,0.00,WUHU21623XXSP,2013-09-25 01:34:00,
2013-09-24 20:39:00,56.8,50.4,29.88,SE,135,0.0,0.0,79,0.00,,,0.00,WUHU21623XXSP,2013-09-25 01:39:00,
2013-09-24 20:44:00,56.7,50.5,29.88,SE,135,0.0,0.0,80,0.00,,,0.00,WUHU21623XXSP,2013-09-25 01:44:00,
2013-09-24 20:49:00,56.7,50.5,29.88,SE,135,0.0,1.8,80,0.00,,,0.00,WUHU21623XXSP,2013-09-25 01:49:00,
2013-09-24 20:54:00,56.1,50.0,29.88,SE,135,0.0,1.8,80,0.00,,,0.00,WUHU21623XXSP,2013-09-25 01:54:00,
2013-09-24 20:59:00,55.9,50.1,29.88,SE,135,0.0,0.0,81,0.00,,,0.00,WUHU21623XXSP,2013-09-25 01:59:00,
2013-09-24 21:04:00,55.6,49.8,29.88,SE,135,0.0,0.0,81,0.00,,,0.00,WUHU21623XXSP,2013-09-25 02:04:00,
2013-09-24 21:09:00,55.6,49.8,29.88,SE,135,0.0,0.0,81,0.00,,,0.00,WUHU21623XXSP,2013-09-25 02:09:00,
2013-09-24 21:14:00,55.6,49.8,29.88,SE,135,0.0,0.0,81,0.00,,,0.00,WUHU21623XXSP,2013-09-25 02:14:00,
2013-09-24 21:19:00,55.9,50.2,29.88,North,0,0.0,0.0,81,0.00,,,0.00,WUHU21623XXSP,2013-09-25 02:19:00,
2013-09-24 21:24:00,55.8,50.0,29.88,SE,135,0.0,0.0,81,0.00,,,0.00,WUHU21623XXSP,2013-09-25 02:24:00,
2013-09-24 21:29:00,55.6,49.9,29.88,North,0,0.0,0.0,81,0.00,,,0.00,WUHU21623XXSP,2013-09-25 02:29:00,
2013-09-24 21:34:00,55.6,49.8,29.88,SSE,157,0.0,0.0,81,0.00,,,0.00,WUHU21623XXSP,2013-09-25 02:34:00,
2013-09-24 21:39:00,55.4,49.7,29.89,SSE,157,0.1,1.3,81,0.00,,,0.00,WUHU21623XXSP,2013-09-25 02:39:00,
2013-09-24 21:44:00,54.9,49.4,29.89,SSE,157,0.0,1.3,82,0.00,,,0.00,WUHU21623XXSP,2013-09-25 02:44:00,
2013-09-24 21:49:00,54.5,49.1,29.88,SSE,157,0.0,0.1,82,0.00,,,0.00,WUHU21623XXSP,2013-09-25 02:49:00,
2013-09-24 21:54:00,54.3,49.2,29.89,SSE,157,0.0,0.1,83,0.00,,,0.00,WUHU21623XXSP,2013-09-25 02:54:00,
2013-09-24 21:59:00,54.3,49.2,29.88,SSE,157,0.0,0.0,83,0.00,,,0.00,WUHU21623XXSP,2013-09-25 02:59:00,
2013-09-24 22:04:00,54.1,49.1,29.89,SSE,157,0.0,0.0,83,0.00,,,0.00,WUHU21623XXSP,2013-09-25 03:04:00,
2013-09-24 22:09:00,54.0,48.9,29.88,SSE,157,0.0,0.0,83,0.00,,,0.00,WUHU21623XXSP,2013-09-25 03:09:00,
2013-09-24 22:14:00,54.0,48.9,29.88,SSE,157,0.0,2.2,83,0.00,,,0.00,WUHU21623XXSP,2013-09-25 03:14:00,
2013-09-24 22:19:00,53.4,48.7,29.88,SSE,157,0.1,2.2,84,0.00,,,0.00,WUHU21623XXSP,2013-09-25 03:19:00,
2013-09-24 22:24:00,53.4,48.7,29.89,SSE,157,0.0,0.1,84,0.00,,,0.00,WUHU21623XXSP,2013-09-25 03:24:00,
2013-09-24 22:29:00,53.4,48.7,29.88,SSE,157,0.0,0.1,84,0.00,,,0.00,WUHU21623XXSP,2013-09-25 03:29:00,
2013-09-24 22:34:00,53.2,48.8,29.88,SSE,157,0.0,0.1,85,0.00,,,0.00,WUHU21623XXSP,2013-09-25 03:34:00,
2013-09-24 22:39:00,53.2,48.5,29.89,SSE,157,0.0,0.0,84,0.00,,,0.00,WUHU21623XXSP,2013-09-25 03:39:00,
2013-09-24 22:44:00,52.9,48.5,29.88,SSE,157,0.0,0.0,85,0.00,,,0.00,WUHU21623XXSP,2013-09-25 03:44:00,
2013-09-24 22:49:00,53.2,48.8,29.88,SSE,157,0.0,0.0,85,0.00,,,0.00,WUHU21623XXSP,2013-09-25 03:49:00,
2013-09-24 22:54:00,53.1,48.7,29.88,SE,135,0.0,0.0,85,0.00,,,0.00,WUHU21623XXSP,2013-09-25 03:54:00,
2013-09-24 22:59:00,52.9,48.5,29.89,SSE,157,0.0,0.0,85,0.00,,,0.00,WUHU21623XXSP,2013-09-25 03:59:00,
2013-09-24 23:01:00,52.9,48.5,29.88,SSE,157,0.0,0.0,85,0.00,,,0.00,WUHU21623XXSP,2013-09-25 04:01:00,
2013-09-24 23:02:00,52.9,48.5,29.88,SSE,157,0.0,0.0,85,0.00,,,0.00,WUHU21623XXSP,2013-09-25 04:02:00,
2013-09-24 23:07:00,52.7,48.3,29.89,SSE,157,0.0,0.0,85,0.00,,,0.00,WUHU21623XXSP,2013-09-25 04:07:00,
2013-09-24 23:12:00,52.7,48.3,29.88,SE,135,0.0,0.0,85,0.00,,,0.00,WUHU21623XXSP,2013-09-25 04:12:00,
2013-09-24 23:17:00,52.7,48.3,29.89,SSE,158,0.0,0.0,85,0.00,,,0.00,WUHU21623XXSP,2013-09-25 04:17:00,
2013-09-24 23:22:00,52.5,48.1,29.88,SSE,158,0.0,0.0,85,0.00,,,0.00,WUHU21623XXSP,2013-09-25 04:22:00,
2013-09-24 23:27:00,52.3,47.9,29.88,SSE,158,0.0,0.0,85,0.00,,,0.00,WUHU21623XXSP,2013-09-25 04:27:00,
2013-09-24 23:31:00,52.3,48.2,29.88,SSE,158,0.0,0.0,86,0.00,,,0.00,WUHU21623XXSP,2013-09-25 04:31:00,
2013-09-24 23:36:00,52.5,48.1,29.88,SSE,158,0.0,0.0,85,0.00,,,0.00,WUHU21623XXSP,2013-09-25 04:36:00,
2013-09-24 23:41:00,52.3,48.2,29.88,SSE,158,0.0,0.0,86,0.00,,,0.00,WUHU21623XXSP,2013-09-25 04:41:00,
2013-09-24 23:46:00,52.0,47.9,29.88,SSE,160,0.0,0.0,86,0.00,,,0.00,WUHU21623XXSP,2013-09-25 04:46:00,
2013-09-24 23:51:00,52.2,48.1,29.88,SSE,162,0.0,0.0,86,0.00,,,0.00,WUHU21623XXSP,2013-09-25 04:51:00,
2013-09-24 23:56:00,52.0,47.9,29.88,SSE,165,0.0,0.0,86,0.00,,,0.00,WUHU21623XXSP,2013-09-25 04:56:00,